Time;durP1;ratioP1;P1;durP2;ratioP2;P2;SDS_P1;SDS_P2;PMS_P1;PMS_P2;Temp;Humidity;BMP_temperature;BMP_pressure;BME280_temperature;BME280_humidity;BME280_pressure;Samples;Min_cycle;Max_cycle;Signal;HPM_P1;HPM_P2
2021/03/08 00:01:57;;;;;;;12.47;8.93;;;;;;;-0.23;100.00;96447.50;5020009;28;20722;-92
2021/03/08 00:04:24;;;;;;;12.57;9.33;;;;;;;-0.23;100.00;96445.75;5019724;28;20290;-93
2021/03/08 00:06:51;;;;;;;10.63;8.37;;;;;;;-0.43;100.00;96433.97;5019046;28;21089;-92
2021/03/08 00:09:18;;;;;;;10.97;8.30;;;;;;;-0.23;100.00;96443.16;5019285;28;20203;-91
2021/03/08 00:11:45;;;;;;;11.37;8.67;;;;;;;-0.56;100.00;96435.56;5019901;28;20668;-92
2021/03/08 00:14:12;;;;;;;15.67;10.90;;;;;;;-0.39;100.00;96425.13;5019052;28;20310;-92
2021/03/08 00:16:39;;;;;;;14.57;10.83;;;;;;;-0.50;100.00;96427.47;5019439;28;20278;-92
2021/03/08 00:19:06;;;;;;;17.13;13.20;;;;;;;-0.59;100.00;96425.41;5019395;28;20203;-92
2021/03/08 00:21:33;;;;;;;38.47;26.97;;;;;;;-0.61;100.00;96417.78;5019088;28;20207;-92
2021/03/08 00:24:00;;;;;;;22.13;16.07;;;;;;;-0.86;100.00;96409.75;5019282;28;20636;-91
2021/03/08 00:26:27;;;;;;;17.30;14.13;;;;;;;-0.83;100.00;96392.34;5015382;28;20278;-92
2021/03/08 00:28:55;;;;;;;14.80;11.30;;;;;;;-0.85;100.00;96383.84;5016362;28;20598;-92
2021/03/08 00:31:21;;;;;;;12.73;9.77;;;;;;;-0.65;100.00;96380.16;5015905;28;20738;-93
2021/03/08 00:33:48;;;;;;;11.43;9.23;;;;;;;-0.75;100.00;96385.00;5018290;28;20295;-90
2021/03/08 00:36:15;;;;;;;8.70;7.67;;;;;;;-0.70;100.00;96394.22;5033256;28;20259;-88
2021/03/08 00:38:42;;;;;;;11.43;7.37;;;;;;;-0.72;100.00;96387.41;5033862;28;20199;-89
2021/03/08 00:41:08;;;;;;;8.97;7.53;;;;;;;-0.54;100.00;96387.28;5025635;28;20245;-91
2021/03/08 00:43:35;;;;;;;8.53;7.57;;;;;;;-0.57;100.00;96390.84;5026283;28;20271;-91
2021/03/08 00:46:03;;;;;;;7.80;6.53;;;;;;;-0.54;100.00;96389.84;5017861;28;20199;-91
2021/03/08 00:48:30;;;;;;;8.40;7.50;;;;;;;-0.60;100.00;96391.03;5032386;28;20219;-89
2021/03/08 00:50:57;;;;;;;12.33;8.17;;;;;;;-0.79;100.00;96374.94;5031105;28;20203;-89
2021/03/08 00:53:24;;;;;;;7.93;6.77;;;;;;;-0.51;100.00;96371.63;5020838;28;20203;-91
2021/03/08 00:55:51;;;;;;;12.67;7.87;;;;;;;-0.38;100.00;96369.13;5015328;28;20286;-92
2021/03/08 00:58:18;;;;;;;8.00;7.20;;;;;;;-0.34;100.00;96363.72;5015307;28;20234;-91
2021/03/08 01:00:45;;;;;;;7.73;6.90;;;;;;;-0.34;100.00;96370.63;5015406;28;20650;-92
2021/03/08 01:03:13;;;;;;;9.80;7.57;;;;;;;-0.37;100.00;96363.91;5015748;28;20246;-91
2021/03/08 01:05:40;;;;;;;12.50;8.67;;;;;;;-0.39;100.00;96357.97;5015347;28;20577;-92
2021/03/08 01:08:07;;;;;;;15.97;11.57;;;;;;;-0.57;100.00;96364.22;5015217;28;20314;-92
2021/03/08 01:10:33;;;;;;;11.20;8.97;;;;;;;-0.79;100.00;96362.88;5015257;28;20223;-92
2021/03/08 01:13:00;;;;;;;13.73;9.00;;;;;;;-0.73;100.00;96348.75;5015121;28;20668;-92
2021/03/08 01:15:27;;;;;;;11.80;9.37;;;;;;;-0.66;100.00;96354.41;5015027;28;20210;-91
2021/03/08 01:17:54;;;;;;;10.63;8.37;;;;;;;-0.68;100.00;96353.69;5015053;28;20206;-93
2021/03/08 01:20:22;;;;;;;12.60;9.17;;;;;;;-0.99;100.00;96342.50;5015245;28;20195;-92
2021/03/08 01:22:49;;;;;;;12.40;8.70;;;;;;;-1.21;100.00;96317.09;5014940;28;20672;-92
2021/03/08 01:25:21;;;;;;;9.63;8.30;;;;;;;-1.06;100.00;96310.22;5015043;28;20219;-92
2021/03/08 01:27:49;;;;;;;13.03;11.30;;;;;;;-0.89;100.00;96293.81;5014737;28;20297;-92
2021/03/08 01:30:18;;;;;;;11.57;9.93;;;;;;;-0.77;100.00;96291.31;5014965;28;20195;-92
2021/03/08 01:32:45;;;;;;;14.20;10.63;;;;;;;-0.97;100.00;96294.22;5014771;28;20279;-92
2021/03/08 01:35:12;;;;;;;17.27;11.97;;;;;;;-1.26;100.00;96288.97;5014575;28;20187;-92
2021/03/08 01:37:41;;;;;;;14.83;12.07;;;;;;;-1.24;100.00;96281.97;5014230;28;20286;-92
2021/03/08 01:40:10;;;;;;;14.47;11.60;;;;;;;-1.41;100.00;96281.28;5014573;28;20683;-92
2021/03/08 01:42:38;;;;;;;14.10;9.60;;;;;;;-1.38;100.00;96269.03;5014590;28;20238;-92
2021/03/08 01:45:06;;;;;;;9.50;8.40;;;;;;;-1.25;100.00;96254.53;5014628;28;20199;-92
2021/03/08 01:47:33;;;;;;;12.90;10.07;;;;;;;-1.23;100.00;96244.13;5014125;28;20239;-93
2021/03/08 01:50:00;;;;;;;13.33;10.50;;;;;;;-1.22;100.00;96249.19;5014543;28;20195;-93
2021/03/08 01:52:27;;;;;;;10.17;8.37;;;;;;;-1.34;100.00;96238.75;5014676;28;20207;-92
2021/03/08 01:54:55;;;;;;;13.40;9.97;;;;;;;-1.14;100.00;96210.09;5014284;28;20290;-92
2021/03/08 01:57:22;;;;;;;14.77;11.53;;;;;;;-1.68;100.00;96225.16;5013765;28;20258;-92
2021/03/08 01:59:49;;;;;;;12.17;10.17;;;;;;;-1.62;100.00;96216.28;5014502;28;20192;-92
2021/03/08 02:02:17;;;;;;;13.20;10.37;;;;;;;-1.58;100.00;96222.91;5014012;28;20214;-92
2021/03/08 02:04:44;;;;;;;14.33;10.43;;;;;;;-1.38;100.00;96220.06;5014195;28;20210;-93
2021/03/08 02:07:11;;;;;;;13.27;9.63;;;;;;;-1.26;100.00;96216.75;5014185;28;20232;-93
2021/03/08 02:09:37;;;;;;;10.97;9.80;;;;;;;-1.37;100.00;96226.03;5014053;28;20200;-93
2021/03/08 02:12:16;;;;;;;12.13;10.07;;;;;;;-1.47;100.00;96218.81;5014359;28;20207;-92
2021/03/08 02:15:08;;;;;;;14.10;10.87;;;;;;;-1.47;100.00;96203.34;5014495;28;20271;-92
2021/03/08 02:17:41;;;;;;;13.83;10.47;;;;;;;-1.45;100.00;96192.97;5014273;28;20188;-93
2021/03/08 02:20:42;;;;;;;15.43;12.03;;;;;;;-1.26;100.00;96201.28;5013829;28;20188;-91
2021/03/08 02:23:49;;;;;;;14.67;10.37;;;;;;;-1.15;100.00;96220.47;5013658;28;20184;-93
2021/03/08 02:26:45;;;;;;;13.60;10.03;;;;;;;-1.68;100.00;96215.69;5013562;28;20285;-92
2021/03/08 02:29:50;;;;;;;12.63;10.93;;;;;;;-1.76;100.00;96201.59;4980491;28;20627;-92
2021/03/08 02:32:20;;;;;;;13.50;10.63;;;;;;;-1.84;100.00;96185.69;5013885;28;20206;-92
2021/03/08 02:34:52;;;;;;;12.57;10.33;;;;;;;-1.71;100.00;96173.78;5013115;28;20289;-93
2021/03/08 02:37:22;;;;;;;17.27;11.77;;;;;;;-1.78;100.00;96163.00;5013551;28;20192;-92
2021/03/08 02:39:53;;;;;;;16.87;11.73;;;;;;;-1.65;100.00;96157.16;5013599;28;20188;-92
2021/03/08 02:42:24;;;;;;;17.00;11.60;;;;;;;-1.68;100.00;96140.97;5013893;28;20290;-94
2021/03/08 02:44:58;;;;;;;12.53;10.10;;;;;;;-1.55;100.00;96132.53;5013515;28;20191;-93
2021/03/08 02:47:28;;;;;;;10.63;9.27;;;;;;;-1.62;100.00;96136.38;5013457;28;20231;-93
2021/03/08 02:49:56;;;;;;;14.30;11.87;;;;;;;-1.68;100.00;96140.97;5013418;28;20201;-93
2021/03/08 02:52:25;;;;;;;12.03;10.67;;;;;;;-1.49;100.00;96148.47;5013253;28;20282;-93
2021/03/08 02:54:55;;;;;;;12.97;10.13;;;;;;;-1.40;100.00;96157.41;5013415;28;20204;-92
2021/03/08 02:57:25;;;;;;;12.33;9.53;;;;;;;-1.63;100.00;96147.59;5013358;28;20192;-93
2021/03/08 02:59:56;;;;;;;12.03;9.60;;;;;;;-1.55;100.00;96132.53;5013456;28;20188;-92
2021/03/08 03:02:25;;;;;;;12.67;8.97;;;;;;;-1.55;100.00;96129.97;5013375;28;20215;-93
2021/03/08 03:04:54;;;;;;;11.97;9.03;;;;;;;-1.56;100.00;96120.56;5013091;28;20200;-93
2021/03/08 03:07:21;;;;;;;11.43;9.13;;;;;;;-1.51;100.00;96123.72;5013412;28;20223;-92
2021/03/08 03:09:50;;;;;;;12.07;9.67;;;;;;;-1.50;100.00;96130.50;5013260;28;20195;-92
2021/03/08 03:12:17;;;;;;;10.00;8.87;;;;;;;-1.45;100.00;96138.81;5013264;28;20197;-93
2021/03/08 03:14:44;;;;;;;14.07;8.70;;;;;;;-1.54;100.00;96127.28;5013288;28;20211;-93
2021/03/08 03:17:15;;;;;;;13.23;9.27;;;;;;;-1.51;100.00;96136.59;5013523;28;20282;-93
2021/03/08 03:19:47;;;;;;;14.40;8.53;;;;;;;-1.68;100.00;96137.56;5013613;28;20568;-92
2021/03/08 03:22:15;;;;;;;11.17;8.87;;;;;;;-1.75;100.00;96124.19;5013203;28;20192;-91
2021/03/08 03:24:42;;;;;;;13.10;9.17;;;;;;;-1.63;100.00;96108.94;5012838;28;20211;-94
2021/03/08 03:27:10;;;;;;;10.23;9.13;;;;;;;-1.65;100.00;96100.47;5013217;28;20646;-94
2021/03/08 03:29:38;;;;;;;11.53;9.67;;;;;;;-1.58;100.00;96099.22;5013640;28;20616;-94
2021/03/08 03:32:07;;;;;;;9.57;8.20;;;;;;;-1.54;100.00;96105.84;5013145;28;20201;-93
2021/03/08 03:34:34;;;;;;;14.00;9.37;;;;;;;-1.78;100.00;96132.09;5013044;28;20212;-94
2021/03/08 03:37:02;;;;;;;10.77;9.17;;;;;;;-1.83;100.00;96128.13;5013135;28;20275;-93
2021/03/08 03:39:30;;;;;;;11.20;9.00;;;;;;;-1.82;100.00;96114.31;5013530;28;20291;-93
2021/03/08 03:41:57;;;;;;;14.00;12.33;;;;;;;-2.11;100.00;96115.94;5012806;28;20211;-93
2021/03/08 03:44:23;;;;;;;16.27;10.00;;;;;;;-2.00;100.00;96117.00;5013341;28;20258;-93
2021/03/08 03:46:50;;;;;;;12.93;10.40;;;;;;;-1.89;100.00;96113.84;5013215;28;20799;-94
2021/03/08 03:49:19;;;;;;;15.37;10.63;;;;;;;-1.69;100.00;96107.56;5013181;28;20195;-94
2021/03/08 03:51:46;;;;;;;14.13;11.43;;;;;;;-1.77;100.00;96117.44;5013203;28;20649;-94
2021/03/08 03:54:14;;;;;;;11.90;10.03;;;;;;;-1.86;100.00;96105.13;5013021;28;20289;-94
2021/03/08 03:56:47;;;;;;;17.10;11.17;;;;;;;-1.96;100.00;96126.22;5013005;28;20294;-94
2021/03/08 03:59:21;;;;;;;20.30;14.77;;;;;;;-2.07;100.00;96140.63;5013135;28;20184;-93
2021/03/08 04:01:55;;;;;;;19.30;14.50;;;;;;;-2.23;100.00;96150.91;5015472;28;20245;-93
2021/03/08 04:04:27;;;;;;;22.53;16.47;;;;;;;-2.30;100.00;96142.69;5016908;28;20184;-93
2021/03/08 04:06:54;;;;;;;20.57;15.33;;;;;;;-2.46;100.00;96129.00;5016402;28;20230;-95
2021/03/08 04:09:23;;;;;;;19.87;15.47;;;;;;;-2.36;100.00;96114.72;5016392;28;20192;-93
2021/03/08 04:11:54;;;;;;;13.47;11.43;;;;;;;-2.41;100.00;96129.59;5016458;28;20322;-94
2021/03/08 04:14:24;;;;;;;20.27;16.80;;;;;;;-2.59;100.00;96120.28;5016144;28;20206;-94
2021/03/08 04:16:56;;;;;;;28.10;20.77;;;;;;;-2.70;100.00;96097.69;5016135;28;20183;-93
2021/03/08 04:19:27;;;;;;;15.87;13.00;;;;;;;-2.61;100.00;96073.22;5026249;28;20196;-93
2021/03/08 04:21:57;;;;;;;16.60;12.33;;;;;;;-2.56;100.00;96060.91;5021284;28;20192;-94
2021/03/08 04:24:27;;;;;;;15.63;12.10;;;;;;;-2.53;100.00;96071.03;5015849;28;20314;-94
2021/03/08 04:26:56;;;;;;;64.73;35.87;;;;;;;-2.61;100.00;96061.19;5015882;28;20417;-93
2021/03/08 04:29:23;;;;;;;59.63;34.77;;;;;;;-2.63;100.00;96047.59;5015994;28;20215;-94
2021/03/08 04:31:51;;;;;;;44.53;27.37;;;;;;;-2.68;100.00;96041.84;5015906;28;20254;-94
2021/03/08 04:34:19;;;;;;;27.30;16.70;;;;;;;-2.72;100.00;96041.19;5015128;28;20204;-95
2021/03/08 04:36:47;;;;;;;17.97;13.73;;;;;;;-2.64;100.00;96033.88;5015889;28;20291;-93
2021/03/08 04:39:14;;;;;;;14.17;11.70;;;;;;;-2.44;100.00;96031.94;5015752;28;20312;-94
2021/03/08 04:41:43;;;;;;;14.57;11.20;;;;;;;-2.37;100.00;96022.16;5016215;28;20589;-93
2021/03/08 04:44:10;;;;;;;12.30;10.63;;;;;;;-2.38;100.00;96015.34;5015253;28;20204;-94
2021/03/08 04:46:39;;;;;;;21.27;14.90;;;;;;;-2.40;100.00;96015.41;5016015;28;20704;-93
2021/03/08 04:49:22;;;;;;;19.43;16.33;;;;;;;-2.35;100.00;96010.84;5152453;27;20558;-95
2021/03/08 04:51:50;;;;;;;20.10;14.50;;;;;;;-2.26;100.00;96020.63;5149694;27;20190;-89
2021/03/08 04:54:18;;;;;;;25.13;18.37;;;;;;;-2.18;100.00;96030.50;5151719;27;20197;-93
2021/03/08 04:56:47;;;;;;;34.97;24.70;;;;;;;-2.08;100.00;96039.34;5151366;27;20221;-91
2021/03/08 04:59:14;;;;;;;24.90;17.10;;;;;;;-2.07;100.00;96042.78;5145295;27;20198;-96
2021/03/08 05:01:45;;;;;;;22.30;17.83;;;;;;;-2.21;100.00;96038.41;5152199;27;20202;-91
2021/03/08 05:04:14;;;;;;;17.03;13.30;;;;;;;-2.27;100.00;96029.25;5151194;27;20186;-95
2021/03/08 05:06:43;;;;;;;18.50;13.50;;;;;;;-2.26;100.00;96023.19;5156480;27;20190;-95
2021/03/08 05:09:13;;;;;;;15.23;11.67;;;;;;;-2.30;100.00;96010.59;5155001;27;20222;-95
2021/03/08 05:11:41;;;;;;;16.90;11.57;;;;;;;-2.27;100.00;95985.50;5154986;27;20638;-94
2021/03/08 05:14:10;;;;;;;62.87;37.43;;;;;;;-2.40;100.00;96016.25;5155907;27;20198;-96
2021/03/08 05:16:40;;;;;;;86.27;47.47;;;;;;;-2.55;100.00;96013.72;5156878;27;20205;-95
2021/03/08 05:19:08;;;;;;;48.93;29.60;;;;;;;-2.45;100.00;96015.69;5156836;27;20623;-96
2021/03/08 05:21:36;;;;;;;51.10;29.90;;;;;;;-2.41;100.00;96029.22;5155661;27;20246;-96
2021/03/08 05:24:05;;;;;;;34.07;22.30;;;;;;;-2.20;100.00;96032.31;5156019;27;20198;-96
2021/03/08 05:26:32;;;;;;;19.07;13.87;;;;;;;-1.95;100.00;96035.16;5173319;27;20186;-96
2021/03/08 05:29:02;;;;;;;19.17;11.97;;;;;;;-2.07;100.00;96047.91;5176889;27;20228;-96
2021/03/08 05:31:31;;;;;;;17.10;11.10;;;;;;;-2.11;100.00;96030.97;5135251;28;20623;-95
2021/03/08 05:34:03;;;;;;;14.40;11.00;;;;;;;-2.09;100.00;96024.81;5132513;28;20199;-96
2021/03/08 05:36:32;;;;;;;13.03;9.53;;;;;;;-2.02;100.00;96027.88;5134160;28;20278;-95
2021/03/08 05:39:01;;;;;;;13.00;10.40;;;;;;;-1.96;100.00;96014.66;5133359;28;20191;-96
2021/03/08 05:41:32;;;;;;;14.03;10.63;;;;;;;-1.96;100.00;96006.91;5135877;28;20234;-96
2021/03/08 05:44:04;;;;;;;16.97;15.17;;;;;;;-1.91;100.00;96012.63;5135704;28;20187;-96
2021/03/08 05:46:55;;;;;;;19.73;15.97;;;;;;;-1.83;100.00;96001.91;5134480;28;20587;-96
2021/03/08 05:49:58;;;;;;;20.80;15.33;;;;;;;-1.56;100.00;95996.84;5134478;28;20604;-96
2021/03/08 05:53:02;;;;;;;23.70;18.53;;;;;;;-1.59;100.00;95997.03;5131509;27;20195;-96
2021/03/08 05:55:53;;;;;;;21.87;16.10;;;;;;;-1.52;100.00;95988.84;5133175;28;20199;-95
2021/03/08 05:58:38;;;;;;;25.53;16.97;;;;;;;-1.36;100.00;95987.91;5130422;28;20560;-95
2021/03/08 06:01:27;;;;;;;26.50;17.53;;;;;;;-1.35;100.00;96008.47;5116308;28;20272;-95
2021/03/08 06:04:11;;;;;;;23.53;17.27;;;;;;;-1.13;100.00;96002.00;5118148;28;20187;-94
2021/03/08 06:07:09;;;;;;;17.73;13.47;;;;;;;-0.93;100.00;96011.09;5117199;28;20284;-94
2021/03/08 06:09:47;;;;;;;17.07;12.70;;;;;;;-0.77;100.00;96028.09;5090449;28;20192;-93
2021/03/08 06:12:18;;;;;;;18.57;14.37;;;;;;;-0.68;100.00;96033.63;5117448;28;20291;-92
2021/03/08 06:14:47;;;;;;;20.53;16.27;;;;;;;-0.58;100.00;96040.72;5117298;28;20186;-92
2021/03/08 06:17:16;;;;;;;27.97;18.57;;;;;;;-0.63;100.00;96049.66;5117568;28;20575;-91
2021/03/08 06:19:44;;;;;;;28.50;19.77;;;;;;;-0.55;100.00;96047.44;5116568;28;20231;-90
2021/03/08 06:22:12;;;;;;;26.73;19.93;;;;;;;-0.31;100.00;96065.72;5116419;28;20675;-91
2021/03/08 06:24:40;;;;;;;28.03;18.90;;;;;;;-0.14;100.00;96087.88;5116146;28;20192;-91
2021/03/08 06:27:08;;;;;;;23.30;18.73;;;;;;;-0.18;100.00;96113.06;5115608;28;20195;-90
2021/03/08 06:29:36;;;;;;;27.47;19.50;;;;;;;0.07;100.00;96107.19;5115851;28;20215;-91
2021/03/08 06:32:05;;;;;;;29.57;21.13;;;;;;;0.39;100.00;96127.53;5115747;28;20286;-90
2021/03/08 06:34:33;;;;;;;27.00;20.30;;;;;;;0.57;100.00;96146.19;5115492;28;20664;-90
2021/03/08 06:37:03;;;;;;;26.37;19.53;;;;;;;0.51;100.00;96164.69;5115710;28;20191;-89
2021/03/08 06:39:33;;;;;;;28.53;21.10;;;;;;;0.67;100.00;96176.53;5115549;28;20274;-90
2021/03/08 06:42:00;;;;;;;37.60;23.87;;;;;;;0.63;100.00;96194.94;5115290;28;20202;-90
2021/03/08 06:44:27;;;;;;;50.03;34.53;;;;;;;0.91;100.00;96206.91;5115291;28;20200;-89
2021/03/08 06:46:55;;;;;;;47.60;31.77;;;;;;;1.01;100.00;96205.38;5115519;28;20236;-90
2021/03/08 06:49:23;;;;;;;42.37;28.73;;;;;;;0.92;100.00;96200.78;5115109;28;20215;-89
2021/03/08 06:52:06;;;;;;;37.47;25.83;;;;;;;1.30;100.00;96198.25;5115035;28;20195;-89
2021/03/08 06:54:34;;;;;;;32.43;23.03;;;;;;;1.45;100.00;96204.13;5115477;28;20187;-89
2021/03/08 06:57:01;;;;;;;21.43;16.67;;;;;;;1.55;100.00;96223.31;5115096;28;20195;-89
2021/03/08 06:59:28;;;;;;;15.17;13.20;;;;;;;1.53;100.00;96235.53;5115237;28;20192;-89
2021/03/08 07:01:55;;;;;;;17.80;15.20;;;;;;;1.85;100.00;96251.47;5115086;28;20231;-89
2021/03/08 07:04:25;;;;;;;14.53;11.80;;;;;;;2.04;100.00;96261.38;5115110;28;20281;-89
2021/03/08 07:07:00;;;;;;;12.07;10.67;;;;;;;2.30;100.00;96277.75;5115232;28;20206;-89
2021/03/08 07:09:27;;;;;;;13.13;10.73;;;;;;;2.83;100.00;96300.81;5115029;28;20327;-89
2021/03/08 07:12:11;;;;;;;11.97;10.50;;;;;;;3.11;100.00;96330.78;5113718;28;20199;-89
2021/03/08 07:14:38;;;;;;;13.07;10.60;;;;;;;3.31;100.00;96329.34;5114787;28;20199;-89
2021/03/08 07:17:30;;;;;;;12.40;9.93;;;;;;;3.51;100.00;96333.91;5114895;28;20207;-90
2021/03/08 07:19:59;;;;;;;15.30;10.47;;;;;;;3.76;100.00;96332.91;5114617;28;20200;-90
2021/03/08 07:22:46;;;;;;;13.73;10.50;;;;;;;3.58;100.00;96345.50;5114835;28;20234;-89
2021/03/08 07:25:22;;;;;;;11.97;10.57;;;;;;;3.82;100.00;96347.22;5114913;28;20194;-89
2021/03/08 07:27:51;;;;;;;14.97;13.50;;;;;;;4.16;100.00;96345.50;5114841;28;20620;-89
2021/03/08 07:30:20;;;;;;;12.93;10.80;;;;;;;4.17;100.00;96346.34;5114064;28;20199;-89
2021/03/08 07:32:58;;;;;;;11.80;9.73;;;;;;;4.31;100.00;96348.72;5114282;28;20207;-89
2021/03/08 07:35:41;;;;;;;13.70;10.87;;;;;;;4.29;100.00;96351.44;5114211;28;20198;-89
2021/03/08 07:38:10;;;;;;;11.23;9.40;;;;;;;4.31;100.00;96359.13;5114215;28;20219;-89
2021/03/08 07:40:39;;;;;;;16.13;10.03;;;;;;;4.25;100.00;96359.56;5114519;28;20191;-90
2021/03/08 07:43:06;;;;;;;10.10;9.17;;;;;;;4.69;100.00;96355.31;5114116;28;20195;-90
2021/03/08 07:45:42;;;;;;;9.90;8.90;;;;;;;4.60;100.00;96358.63;5114433;28;20218;-90
2021/03/08 07:48:11;;;;;;;8.93;7.30;;;;;;;4.68;100.00;96348.47;5113943;28;20233;-90
2021/03/08 07:50:39;;;;;;;10.73;8.80;;;;;;;5.05;100.00;96361.16;5114111;28;20194;-90
2021/03/08 07:53:25;;;;;;;14.67;12.60;;;;;;;5.15;100.00;96359.47;5114293;28;20231;-90
2021/03/08 07:55:53;;;;;;;12.30;10.40;;;;;;;5.45;100.00;96361.41;5114081;28;20188;-89
2021/03/08 07:58:20;;;;;;;12.00;10.80;;;;;;;5.94;100.00;96368.66;5113841;28;20191;-90
2021/03/08 08:00:48;;;;;;;10.40;8.87;;;;;;;6.24;100.00;96369.66;5114041;28;20256;-89
2021/03/08 08:03:16;;;;;;;14.03;11.17;;;;;;;6.36;100.00;96383.47;5114025;28;20238;-90
2021/03/08 08:05:44;;;;;;;9.87;8.87;;;;;;;6.03;100.00;96381.91;5113663;28;20188;-90
2021/03/08 08:08:14;;;;;;;12.13;9.50;;;;;;;6.60;100.00;96376.16;5113649;28;20309;-90
2021/03/08 08:10:41;;;;;;;12.23;9.27;;;;;;;7.25;100.00;96370.56;5113725;28;20199;-89
2021/03/08 08:13:11;;;;;;;9.73;8.83;;;;;;;7.03;100.00;96376.81;5113705;28;20664;-90
2021/03/08 08:15:43;;;;;;;12.33;9.03;;;;;;;7.28;100.00;96372.91;5114194;28;20191;-90
2021/03/08 08:18:16;;;;;;;10.70;9.47;;;;;;;7.92;100.00;96376.75;5113701;28;20188;-90
2021/03/08 08:20:46;;;;;;;9.60;8.57;;;;;;;8.32;100.00;96374.78;5113663;28;20709;-90
2021/03/08 08:23:15;;;;;;;10.37;9.10;;;;;;;8.29;100.00;96374.22;5113985;28;20286;-90
2021/03/08 08:25:44;;;;;;;13.17;10.87;;;;;;;8.30;100.00;96370.63;5113664;28;20217;-90
2021/03/08 08:28:12;;;;;;;12.80;9.63;;;;;;;8.38;100.00;96373.38;5113423;28;20340;-90
2021/03/08 08:30:39;;;;;;;10.00;8.37;;;;;;;7.85;100.00;96379.09;5113322;28;20242;-90
2021/03/08 08:33:06;;;;;;;9.00;8.20;;;;;;;7.89;100.00;96379.66;5113405;28;20195;-90
2021/03/08 08:35:34;;;;;;;11.00;9.37;;;;;;;7.39;100.00;96378.00;5113540;28;20668;-90
2021/03/08 08:38:20;;;;;;;10.30;8.93;;;;;;;8.02;100.00;96378.41;5113214;28;20192;-90
2021/03/08 08:40:47;;;;;;;11.60;8.83;;;;;;;7.54;100.00;96375.81;5113279;28;20183;-90
2021/03/08 08:43:21;;;;;;;13.77;9.27;;;;;;;8.05;100.00;96364.22;5113199;28;20203;-90
2021/03/08 08:45:49;;;;;;;10.50;9.03;;;;;;;8.24;100.00;96364.19;5113583;28;20633;-90
2021/03/08 08:48:17;;;;;;;26.60;16.07;;;;;;;8.05;100.00;96348.50;5113210;28;20227;-90
2021/03/08 08:50:45;;;;;;;18.10;13.17;;;;;;;8.01;100.00;96340.13;5113643;28;20659;-90
2021/03/08 08:53:12;;;;;;;18.53;13.50;;;;;;;7.83;100.00;96345.25;5113324;28;20192;-90
2021/03/08 08:55:49;;;;;;;13.77;12.37;;;;;;;8.66;100.00;96339.38;5113212;28;20213;-90
2021/03/08 08:58:24;;;;;;;22.60;15.63;;;;;;;8.41;100.00;96343.47;5113439;28;20211;-90
2021/03/08 09:01:22;;;;;;;17.33;14.10;;;;;;;9.10;100.00;96344.81;5113282;28;20213;-90
2021/03/08 09:03:56;;;;;;;18.00;13.80;;;;;;;9.00;100.00;96334.38;5089663;28;20200;-90
2021/03/08 09:06:47;;;;;;;38.17;23.20;;;;;;;8.77;100.00;96331.34;5113073;28;20195;-89
2021/03/08 09:09:16;;;;;;;18.13;13.93;;;;;;;8.64;100.00;96334.28;5113219;28;20233;-90
2021/03/08 09:11:50;;;;;;;27.90;16.67;;;;;;;9.53;100.00;96336.22;5113208;28;20280;-91
2021/03/08 09:14:33;;;;;;;18.97;14.80;;;;;;;9.74;100.00;96336.75;5113541;28;20183;-90
2021/03/08 09:17:25;;;;;;;23.87;16.80;;;;;;;9.50;100.00;96337.34;5113158;28;20198;-90
2021/03/08 09:20:24;;;;;;;18.90;13.10;;;;;;;10.26;100.00;96337.81;5103001;28;20745;-91
2021/03/08 09:22:52;;;;;;;16.13;13.17;;;;;;;10.79;100.00;96340.19;5113073;28;20198;-90
2021/03/08 09:25:23;;;;;;;16.10;13.47;;;;;;;10.78;100.00;96345.63;5112864;28;20234;-91
2021/03/08 09:28:00;;;;;;;15.77;12.77;;;;;;;10.59;100.00;96336.16;5112722;28;20740;-90
2021/03/08 09:30:29;;;;;;;19.23;15.57;;;;;;;11.48;100.00;96340.06;5113031;28;20172;-89
2021/03/08 09:33:00;;;;;;;16.87;13.10;;;;;;;10.23;100.00;96334.47;5112745;28;20200;-90
2021/03/08 09:35:30;;;;;;;16.57;12.87;;;;;;;10.31;100.00;96327.63;5115643;28;20195;-90
2021/03/08 09:37:59;;;;;;;18.83;14.00;;;;;;;10.81;100.00;96329.53;5116623;28;20248;-90
2021/03/08 09:40:28;;;;;;;17.93;13.63;;;;;;;10.37;100.00;96333.09;5117093;28;20278;-90
2021/03/08 09:42:57;;;;;;;11.13;9.90;;;;;;;10.14;100.00;96340.63;5116737;28;20295;-90
2021/03/08 09:45:27;;;;;;;12.87;11.40;;;;;;;10.63;100.00;96338.34;5116468;28;20235;-91
2021/03/08 09:47:54;;;;;;;16.63;12.00;;;;;;;10.58;100.00;96332.72;5116141;28;20223;-90
2021/03/08 09:50:27;;;;;;;12.93;11.53;;;;;;;10.31;100.00;96330.28;5116732;28;20221;-90
2021/03/08 09:52:55;;;;;;;12.93;11.37;;;;;;;9.98;100.00;96324.78;5116326;28;20215;-90
2021/03/08 09:55:25;;;;;;;13.13;11.03;;;;;;;9.99;100.00;96322.00;5116317;28;20192;-90
2021/03/08 09:57:52;;;;;;;13.67;10.80;;;;;;;9.80;100.00;96324.78;5116168;28;20659;-89
2021/03/08 10:00:23;;;;;;;15.17;11.17;;;;;;;10.34;100.00;96316.81;5116117;28;20668;-90
2021/03/08 10:03:00;;;;;;;15.53;11.50;;;;;;;11.12;100.00;96327.19;5116217;28;20184;-90
2021/03/08 10:05:41;;;;;;;10.93;9.77;;;;;;;10.35;100.00;96327.16;5116494;28;20191;-90
2021/03/08 10:08:09;;;;;;;17.50;12.00;;;;;;;10.83;100.00;96314.41;5116200;28;20219;-90
2021/03/08 10:10:40;;;;;;;12.90;11.27;;;;;;;11.23;100.00;96326.06;5116015;28;20200;-91
2021/03/08 10:13:07;;;;;;;17.67;9.77;;;;;;;10.80;100.00;96318.19;5116185;28;20255;-91
2021/03/08 10:15:43;;;;;;;11.70;10.17;;;;;;;11.13;100.00;96318.31;5115915;28;20200;-90
2021/03/08 10:18:11;;;;;;;14.80;10.60;;;;;;;11.46;100.00;96316.53;5115939;28;20732;-90
2021/03/08 10:20:46;;;;;;;12.47;10.13;;;;;;;11.68;100.00;96316.91;5115940;28;20203;-89
2021/03/08 10:23:18;;;;;;;13.30;10.10;;;;;;;11.54;100.00;96313.94;5115733;28;20736;-90
2021/03/08 10:25:45;;;;;;;11.87;10.63;;;;;;;12.28;100.00;96309.47;5116065;28;20660;-91
2021/03/08 10:28:13;;;;;;;10.30;8.60;;;;;;;11.67;100.00;96300.25;5115564;28;20226;-89
2021/03/08 10:30:41;;;;;;;12.03;9.87;;;;;;;11.45;100.00;96306.19;5115653;28;20692;-91
2021/03/08 10:33:11;;;;;;;16.17;12.03;;;;;;;11.87;100.00;96293.72;5115844;28;20725;-90
2021/03/08 10:35:40;;;;;;;11.23;10.07;;;;;;;12.23;100.00;96292.53;5116249;28;20192;-89
2021/03/08 10:38:07;;;;;;;10.20;8.97;;;;;;;12.02;100.00;96291.25;5115528;28;20231;-90
2021/03/08 10:40:35;;;;;;;12.13;10.03;;;;;;;11.94;100.00;96285.16;5115441;28;20287;-90
2021/03/08 10:43:03;;;;;;;12.27;10.27;;;;;;;12.01;100.00;96278.22;5115493;28;20257;-90
2021/03/08 10:45:31;;;;;;;10.17;9.17;;;;;;;11.57;100.00;96276.75;5115126;28;20200;-90
2021/03/08 10:48:06;;;;;;;11.13;10.03;;;;;;;12.22;100.00;96272.41;5114994;28;20318;-90
2021/03/08 10:50:45;;;;;;;11.87;10.23;;;;;;;12.77;100.00;96271.56;5115606;28;20199;-90
2021/03/08 10:53:12;;;;;;;10.77;9.63;;;;;;;13.06;100.00;96258.56;5115210;28;20202;-90
2021/03/08 10:55:39;;;;;;;10.90;9.77;;;;;;;12.56;100.00;96254.50;5115054;28;20270;-90
2021/03/08 10:58:06;;;;;;;12.17;10.33;;;;;;;12.89;100.00;96253.56;5115347;28;20727;-90
2021/03/08 11:00:34;;;;;;;10.90;9.67;;;;;;;12.73;100.00;96252.63;5115518;28;20202;-91
2021/03/08 11:03:01;;;;;;;12.67;9.67;;;;;;;12.95;100.00;96245.75;5115269;28;20295;-90
2021/03/08 11:05:30;;;;;;;12.03;10.73;;;;;;;13.02;100.00;96236.16;5114937;28;20196;-90
2021/03/08 11:07:57;;;;;;;13.20;10.13;;;;;;;13.36;100.00;96234.94;5114895;28;20268;-90
2021/03/08 11:10:34;;;;;;;13.57;10.73;;;;;;;13.13;100.00;96232.31;5114989;28;20233;-90
2021/03/08 11:13:03;;;;;;;11.67;10.43;;;;;;;12.96;100.00;96226.31;5115063;28;20278;-91
2021/03/08 11:15:30;;;;;;;11.93;9.00;;;;;;;12.46;100.00;96221.44;5114675;28;20228;-90
2021/03/08 11:17:57;;;;;;;11.30;10.10;;;;;;;12.23;100.00;96216.13;5115070;28;20204;-88
2021/03/08 11:20:27;;;;;;;13.60;10.23;;;;;;;13.32;100.00;96216.00;5114740;28;20196;-88
2021/03/08 11:23:01;;;;;;;15.63;11.13;;;;;;;13.21;100.00;96207.66;5115906;28;20222;-88
2021/03/08 11:25:35;;;;;;;9.80;8.77;;;;;;;12.45;100.00;96207.44;5115153;28;20211;-88
2021/03/08 11:28:05;;;;;;;12.60;10.37;;;;;;;13.09;100.00;96197.53;5114586;28;20203;-88
2021/03/08 11:30:34;;;;;;;11.03;9.53;;;;;;;12.71;100.00;96201.03;5114564;28;20197;-88
2021/03/08 11:33:01;;;;;;;11.30;9.00;;;;;;;13.17;100.00;96193.19;5114333;28;20286;-88